Weather at Boone County Airport

Public forecast

Using degrees Fahrenheit for public forecast. Weather courtesy of forecast.io.

Closest aviation weather report (METAR) to Boone County Airport

Closest report is Indianapolis Executive Airport, 8.8 nm (16.3 km) E.

2024/06/19 19:35 (retrieved 21 minutes ago)

KTYQ 191935Z AUTO 26003KT 10SM SCT060 31/21 A3025 RMK AO2 T03070211

Closest aviation forecast (TAF) to Boone County Airport

Closest forecast is Indianapolis International Airport, 18.7 nm (34.6 km) SSE.

2024/06/19 18:22 (retrieved 2 hours ago)

TAF KIND 191720Z 1918/2024 20005KT P6SM VCSH BKN040 FM200300 22003KT P6SM FEW040 SCT250 FM200700 26002KT 6SM BR BCFG SCT250 TEMPO 2009/2012 00000KT 4SM BR BCFG FM201300 24005KT P6SM FEW050 SCT250